Terminal Aerodrome Forecast
Issued by NWS Cleveland, OH

Home | Current Version | Previous Version | Graphics & Text | Print | Product List | Glossary Off
Versions: 1 2 3 4 5 6 7 8 9 10 11 12 13 14 15 16 17 18 19 20

000
FTUS41 KCLE 310200 AAA
TAFERI
TAF AMD
KERI 310241Z 3103/3124 19005KT P6SM BKN080
      TEMPO 3104/3108 2SM -TSRA BKN030CB
     FM310800 20005KT P6SM BKN050
      TEMPO 3108/3112 4SM -SHRA BKN030
     FM311400 25006KT P6SM BKN040
     FM311800 26008KT P6SM FEW045=

USA.gov is the U.S. government's official web portal to all federal, state and local government web resources and services.